sensor_id;sensor_type;location;lat;lon;timestamp;pressure;altitude;pressure_sealevel;temperature;humidity
27643;BME280;15053;48.618;10.024;2023-01-29T00:00:10;95120.91;;;0.23;82.26
27643;BME280;15053;48.618;10.024;2023-01-29T00:02:39;95121.69;;;0.23;82.44
27643;BME280;15053;48.618;10.024;2023-01-29T00:05:06;95113.84;;;0.18;82.73
27643;BME280;15053;48.618;10.024;2023-01-29T00:07:52;95122.91;;;0.21;82.59
27643;BME280;15053;48.618;10.024;2023-01-29T00:10:19;95129.38;;;0.23;82.82
27643;BME280;15053;48.618;10.024;2023-01-29T00:12:45;95135.69;;;0.21;83.53
27643;BME280;15053;48.618;10.024;2023-01-29T00:15:12;95128.00;;;0.21;83.48
27643;BME280;15053;48.618;10.024;2023-01-29T00:17:38;95125.25;;;0.22;82.83
27643;BME280;15053;48.618;10.024;2023-01-29T00:20:05;95128.41;;;0.24;83.82
27643;BME280;15053;48.618;10.024;2023-01-29T00:22:31;95121.31;;;0.26;83.56
27643;BME280;15053;48.618;10.024;2023-01-29T00:24:58;95119.91;;;0.30;83.84
27643;BME280;15053;48.618;10.024;2023-01-29T00:27:24;95131.53;;;0.33;83.23
27643;BME280;15053;48.618;10.024;2023-01-29T00:29:50;95134.88;;;0.33;83.52
27643;BME280;15053;48.618;10.024;2023-01-29T00:32:40;95129.56;;;0.35;83.90
27643;BME280;15053;48.618;10.024;2023-01-29T00:35:07;95127.00;;;0.35;83.12
27643;BME280;15053;48.618;10.024;2023-01-29T00:37:34;95126.41;;;0.33;82.95
27643;BME280;15053;48.618;10.024;2023-01-29T00:40:01;95129.56;;;0.28;82.91
27643;BME280;15053;48.618;10.024;2023-01-29T00:42:27;95120.91;;;0.29;83.15
27643;BME280;15053;48.618;10.024;2023-01-29T00:45:13;95115.56;;;0.31;82.36
27643;BME280;15053;48.618;10.024;2023-01-29T00:47:40;95106.72;;;0.27;82.64
27643;BME280;15053;48.618;10.024;2023-01-29T00:50:08;95094.34;;;0.17;82.13
27643;BME280;15053;48.618;10.024;2023-01-29T00:52:36;95103.00;;;0.23;82.74
27643;BME280;15053;48.618;10.024;2023-01-29T00:55:04;95098.25;;;0.26;82.23
27643;BME280;15053;48.618;10.024;2023-01-29T00:57:32;95114.00;;;0.30;82.87
27643;BME280;15053;48.618;10.024;2023-01-29T00:59:59;95115.38;;;0.32;82.05
27643;BME280;15053;48.618;10.024;2023-01-29T01:02:26;95111.41;;;0.36;82.89
27643;BME280;15053;48.618;10.024;2023-01-29T01:05:15;95118.91;;;0.38;82.33
27643;BME280;15053;48.618;10.024;2023-01-29T01:07:49;95118.31;;;0.36;81.93
27643;BME280;15053;48.618;10.024;2023-01-29T01:10:19;95115.16;;;0.34;82.69
27643;BME280;15053;48.618;10.024;2023-01-29T01:12:59;95109.66;;;0.30;82.21
27643;BME280;15053;48.618;10.024;2023-01-29T01:15:29;95119.72;;;0.32;81.95
27643;BME280;15053;48.618;10.024;2023-01-29T01:17:57;95115.16;;;0.34;81.36
27643;BME280;15053;48.618;10.024;2023-01-29T01:20:26;95113.78;;;0.31;82.17
27643;BME280;15053;48.618;10.024;2023-01-29T01:22:54;95110.28;;;0.26;81.90
27643;BME280;15053;48.618;10.024;2023-01-29T01:25:22;95104.00;;;0.22;81.22
27643;BME280;15053;48.618;10.024;2023-01-29T01:27:57;95105.19;;;0.19;82.01
27643;BME280;15053;48.618;10.024;2023-01-29T01:30:25;95102.00;;;0.24;82.31
27643;BME280;15053;48.618;10.024;2023-01-29T01:32:51;95102.59;;;0.26;81.62
27643;BME280;15053;48.618;10.024;2023-01-29T01:35:18;95094.91;;;0.26;81.58
27643;BME280;15053;48.618;10.024;2023-01-29T01:37:45;95100.03;;;0.26;81.66
27643;BME280;15053;48.618;10.024;2023-01-29T01:40:18;95102.00;;;0.24;81.51
27643;BME280;15053;48.618;10.024;2023-01-29T01:42:51;95096.53;;;0.14;81.56
27643;BME280;15053;48.618;10.024;2023-01-29T01:45:28;95098.88;;;0.09;81.45
27643;BME280;15053;48.618;10.024;2023-01-29T01:48:12;95088.69;;;0.02;80.93
27643;BME280;15053;48.618;10.024;2023-01-29T01:50:45;95094.59;;;0.03;81.95
27643;BME280;15053;48.618;10.024;2023-01-29T01:53:18;95099.50;;;0.04;82.36
27643;BME280;15053;48.618;10.024;2023-01-29T01:55:51;95094.59;;;0.03;81.36
27643;BME280;15053;48.618;10.024;2023-01-29T01:58:31;95082.59;;;-0.04;81.20
27643;BME280;15053;48.618;10.024;2023-01-29T02:00:59;95084.75;;;-0.14;81.59
27643;BME280;15053;48.618;10.024;2023-01-29T02:03:27;95082.63;;;-0.23;81.28
27643;BME280;15053;48.618;10.024;2023-01-29T02:06:14;95087.53;;;-0.22;81.27
27643;BME280;15053;48.618;10.024;2023-01-29T02:09:18;95082.63;;;-0.17;82.27
27643;BME280;15053;48.618;10.024;2023-01-29T02:12:12;95077.47;;;-0.10;82.42
27643;BME280;15053;48.618;10.024;2023-01-29T02:14:40;95087.72;;;-0.04;82.66
27643;BME280;15053;48.618;10.024;2023-01-29T02:17:11;95088.88;;;0.00;82.39
27643;BME280;15053;48.618;10.024;2023-01-29T02:19:46;95091.81;;;-0.03;81.76
27643;BME280;15053;48.618;10.024;2023-01-29T02:25:01;95080.06;;;-0.17;81.93
27643;BME280;15053;48.618;10.024;2023-01-29T02:30:22;95105.22;;;-0.14;81.42
27643;BME280;15053;48.618;10.024;2023-01-29T02:33:08;95099.13;;;-0.13;81.89
27643;BME280;15053;48.618;10.024;2023-01-29T02:35:50;95096.75;;;-0.08;81.63
27643;BME280;15053;48.618;10.024;2023-01-29T02:41:13;95094.38;;;-0.03;81.98
27643;BME280;15053;48.618;10.024;2023-01-29T02:44:02;95090.06;;;-0.02;82.43
27643;BME280;15053;48.618;10.024;2023-01-29T02:46:34;95095.78;;;0.00;81.77
27643;BME280;15053;48.618;10.024;2023-01-29T02:51:54;95094.16;;;0.06;82.06
27643;BME280;15053;48.618;10.024;2023-01-29T02:54:32;95103.44;;;0.07;82.19
27643;BME280;15053;48.618;10.024;2023-01-29T02:57:15;95107.56;;;0.08;81.99
27643;BME280;15053;48.618;10.024;2023-01-29T03:00:04;95112.28;;;0.11;82.10
27643;BME280;15053;48.618;10.024;2023-01-29T03:02:54;95098.88;;;0.09;81.62
27643;BME280;15053;48.618;10.024;2023-01-29T03:05:30;95104.00;;;0.09;81.75
27643;BME280;15053;48.618;10.024;2023-01-29T03:08:06;95117.00;;;0.14;82.39
27643;BME280;15053;48.618;10.024;2023-01-29T03:13:18;95110.31;;;0.13;82.22
27643;BME280;15053;48.618;10.024;2023-01-29T03:15:48;95105.78;;;0.15;82.40
27643;BME280;15053;48.618;10.024;2023-01-29T03:18:37;95100.47;;;0.16;82.01
27643;BME280;15053;48.618;10.024;2023-01-29T03:21:21;95099.66;;;0.16;82.33
27643;BME280;15053;48.618;10.024;2023-01-29T03:24:11;95096.94;;;0.11;81.57
27643;BME280;15053;48.618;10.024;2023-01-29T03:27:01;95096.16;;;0.04;80.59
27643;BME280;15053;48.618;10.024;2023-01-29T03:29:49;95090.25;;;-0.04;81.36
27643;BME280;15053;48.618;10.024;2023-01-29T03:32:51;95092.06;;;-0.17;80.55
27643;BME280;15053;48.618;10.024;2023-01-29T03:35:22;95084.00;;;-0.27;81.23
27643;BME280;15053;48.618;10.024;2023-01-29T03:38:03;95087.16;;;-0.25;81.00
27643;BME280;15053;48.618;10.024;2023-01-29T03:40:46;95085.19;;;-0.23;80.73
27643;BME280;15053;48.618;10.024;2023-01-29T03:43:44;95093.84;;;-0.24;80.26
27643;BME280;15053;48.618;10.024;2023-01-29T03:46:21;95098.56;;;-0.28;80.97
27643;BME280;15053;48.618;10.024;2023-01-29T03:49:29;95093.47;;;-0.28;81.21
27643;BME280;15053;48.618;10.024;2023-01-29T03:55:16;95104.28;;;-0.32;81.59
27643;BME280;15053;48.618;10.024;2023-01-29T03:57:56;95108.59;;;-0.33;81.80
27643;BME280;15053;48.618;10.024;2023-01-29T04:00:31;95110.56;;;-0.35;82.35
27643;BME280;15053;48.618;10.024;2023-01-29T04:03:20;95103.31;;;-0.31;81.56
27643;BME280;15053;48.618;10.024;2023-01-29T04:05:54;95098.56;;;-0.28;82.80
27643;BME280;15053;48.618;10.024;2023-01-29T04:08:37;95106.44;;;-0.23;82.10
27643;BME280;15053;48.618;10.024;2023-01-29T04:11:11;95108.00;;;-0.22;82.66
27643;BME280;15053;48.618;10.024;2023-01-29T04:13:41;95102.31;;;-0.17;82.41
27643;BME280;15053;48.618;10.024;2023-01-29T04:16:13;95096.00;;;-0.15;82.73
27643;BME280;15053;48.618;10.024;2023-01-29T04:18:56;95100.09;;;-0.14;82.24
27643;BME280;15053;48.618;10.024;2023-01-29T04:21:28;95086.94;;;-0.17;81.99
27643;BME280;15053;48.618;10.024;2023-01-29T04:23:58;95108.00;;;-0.09;81.94
27643;BME280;15053;48.618;10.024;2023-01-29T04:26:42;95093.41;;;-0.08;82.17
27643;BME280;15053;48.618;10.024;2023-01-29T04:34:58;95106.63;;;-0.11;82.10
27643;BME280;15053;48.618;10.024;2023-01-29T04:42:54;95106.03;;;-0.13;80.98
27643;BME280;15053;48.618;10.024;2023-01-29T04:45:49;95109.19;;;-0.18;81.15
27643;BME280;15053;48.618;10.024;2023-01-29T04:48:36;95110.38;;;-0.20;81.20
27643;BME280;15053;48.618;10.024;2023-01-29T04:51:12;95117.47;;;-0.29;80.75
27643;BME280;15053;48.618;10.024;2023-01-29T04:53:49;95104.47;;;-0.40;81.02
27643;BME280;15053;48.618;10.024;2023-01-29T04:56:35;95110.78;;;-0.43;81.32
27643;BME280;15053;48.618;10.024;2023-01-29T04:59:06;95115.31;;;-0.45;81.80
27643;BME280;15053;48.618;10.024;2023-01-29T05:01:36;95117.28;;;-0.47;82.17
27643;BME280;15053;48.618;10.024;2023-01-29T05:04:08;95118.44;;;-0.49;82.02
27643;BME280;15053;48.618;10.024;2023-01-29T05:06:37;95118.25;;;-0.48;82.48
27643;BME280;15053;48.618;10.024;2023-01-29T05:09:05;95109.19;;;-0.44;82.81
27643;BME280;15053;48.618;10.024;2023-01-29T05:11:34;95113.91;;;-0.41;83.11
27643;BME280;15053;48.618;10.024;2023-01-29T05:14:03;95110.00;;;-0.37;82.33
27643;BME280;15053;48.618;10.024;2023-01-29T05:16:33;95104.88;;;-0.37;82.74
27643;BME280;15053;48.618;10.024;2023-01-29T05:19:11;95096.63;;;-0.39;82.12
27643;BME280;15053;48.618;10.024;2023-01-29T05:21:40;95091.09;;;-0.42;81.72
27643;BME280;15053;48.618;10.024;2023-01-29T05:24:16;95089.53;;;-0.37;82.83
27643;BME280;15053;48.618;10.024;2023-01-29T05:26:45;95084.81;;;-0.33;82.30
27643;BME280;15053;48.618;10.024;2023-01-29T05:29:30;95082.03;;;-0.32;82.86
27643;BME280;15053;48.618;10.024;2023-01-29T05:31:57;95088.75;;;-0.31;82.31
27643;BME280;15053;48.618;10.024;2023-01-29T05:34:23;95082.03;;;-0.32;82.77
27643;BME280;15053;48.618;10.024;2023-01-29T05:36:50;95092.84;;;-0.30;81.79
27643;BME280;15053;48.618;10.024;2023-01-29T05:39:16;95097.78;;;-0.35;82.17
27643;BME280;15053;48.618;10.024;2023-01-29T05:41:43;95089.13;;;-0.40;81.39
27643;BME280;15053;48.618;10.024;2023-01-29T05:44:09;95087.16;;;-0.38;82.17
27643;BME280;15053;48.618;10.024;2023-01-29T05:46:36;95099.56;;;-0.35;82.18
27643;BME280;15053;48.618;10.024;2023-01-29T05:49:03;95103.31;;;-0.31;81.80
27643;BME280;15053;48.618;10.024;2023-01-29T05:51:29;95109.00;;;-0.29;81.39
27643;BME280;15053;48.618;10.024;2023-01-29T05:53:56;95112.56;;;-0.30;80.59
27643;BME280;15053;48.618;10.024;2023-01-29T05:56:22;95115.31;;;-0.32;80.75
27643;BME280;15053;48.618;10.024;2023-01-29T05:58:50;95113.94;;;-0.34;80.95
27643;BME280;15053;48.618;10.024;2023-01-29T06:01:19;95109.59;;;-0.34;81.24
27643;BME280;15053;48.618;10.024;2023-01-29T06:03:46;95116.09;;;-0.31;81.73
27643;BME280;15053;48.618;10.024;2023-01-29T06:06:13;95106.84;;;-0.26;80.69
27643;BME280;15053;48.618;10.024;2023-01-29T06:08:40;95110.78;;;-0.23;80.49
27643;BME280;15053;48.618;10.024;2023-01-29T06:11:08;95098.94;;;-0.24;80.96
27643;BME280;15053;48.618;10.024;2023-01-29T06:13:35;95095.81;;;-0.26;80.58
27643;BME280;15053;48.618;10.024;2023-01-29T06:16:08;95096.03;;;-0.28;80.44
27643;BME280;15053;48.618;10.024;2023-01-29T06:18:35;95085.19;;;-0.36;80.69
27643;BME280;15053;48.618;10.024;2023-01-29T06:21:04;95077.31;;;-0.35;80.56
27643;BME280;15053;48.618;10.024;2023-01-29T06:23:30;95066.09;;;-0.34;81.02
27643;BME280;15053;48.618;10.024;2023-01-29T06:26:09;95048.59;;;-0.37;80.32
27643;BME280;15053;48.618;10.024;2023-01-29T06:28:35;95057.63;;;-0.41;80.95
27643;BME280;15053;48.618;10.024;2023-01-29T06:31:03;95063.94;;;-0.43;80.88
27643;BME280;15053;48.618;10.024;2023-01-29T06:33:49;95070.81;;;-0.44;80.27
27643;BME280;15053;48.618;10.024;2023-01-29T06:36:16;95074.00;;;-0.42;81.32
27643;BME280;15053;48.618;10.024;2023-01-29T06:38:42;95070.63;;;-0.42;80.77
27643;BME280;15053;48.618;10.024;2023-01-29T06:41:10;95071.81;;;-0.45;81.44
27643;BME280;15053;48.618;10.024;2023-01-29T06:43:38;95067.50;;;-0.44;80.86
27643;BME280;15053;48.618;10.024;2023-01-29T06:46:06;95075.94;;;-0.44;80.61
27643;BME280;15053;48.618;10.024;2023-01-29T06:48:33;95070.81;;;-0.44;80.55
27643;BME280;15053;48.618;10.024;2023-01-29T06:51:04;95079.91;;;-0.48;81.58
27643;BME280;15053;48.618;10.024;2023-01-29T06:53:32;95079.31;;;-0.56;81.17
27643;BME280;15053;48.618;10.024;2023-01-29T06:55:59;95086.38;;;-0.52;81.91
27643;BME280;15053;48.618;10.024;2023-01-29T06:58:26;95089.72;;;-0.51;80.86
27643;BME280;15053;48.618;10.024;2023-01-29T07:00:52;95092.28;;;-0.51;81.91
27643;BME280;15053;48.618;10.024;2023-01-29T07:03:19;95086.78;;;-0.55;82.02
27643;BME280;15053;48.618;10.024;2023-01-29T07:05:51;95092.28;;;-0.51;82.11
27643;BME280;15053;48.618;10.024;2023-01-29T07:08:18;95095.63;;;-0.51;82.26
27643;BME280;15053;48.618;10.024;2023-01-29T07:10:48;95098.59;;;-0.47;81.36
27643;BME280;15053;48.618;10.024;2023-01-29T07:13:15;95087.75;;;-0.43;82.56
27643;BME280;15053;48.618;10.024;2023-01-29T07:15:42;95094.47;;;-0.42;81.25
27643;BME280;15053;48.618;10.024;2023-01-29T07:18:10;95101.91;;;-0.40;82.15
27643;BME280;15053;48.618;10.024;2023-01-29T07:20:39;95104.69;;;-0.42;82.05
27643;BME280;15053;48.618;10.024;2023-01-29T07:23:11;95097.59;;;-0.46;81.78
27643;BME280;15053;48.618;10.024;2023-01-29T07:25:38;95104.88;;;-0.50;81.37
27643;BME280;15053;48.618;10.024;2023-01-29T07:28:06;95107.66;;;-0.58;81.76
27643;BME280;15053;48.618;10.024;2023-01-29T07:30:33;95116.69;;;-0.55;81.63
27643;BME280;15053;48.618;10.024;2023-01-29T07:33:01;95117.06;;;-0.52;81.71
27643;BME280;15053;48.618;10.024;2023-01-29T07:35:28;95130.84;;;-0.40;82.33
27643;BME280;15053;48.618;10.024;2023-01-29T07:37:54;95127.69;;;-0.35;81.64
27643;BME280;15053;48.618;10.024;2023-01-29T07:40:21;95127.13;;;-0.37;81.54
27643;BME280;15053;48.618;10.024;2023-01-29T07:42:47;95122.22;;;-0.39;81.20
27643;BME280;15053;48.618;10.024;2023-01-29T07:45:14;95116.69;;;-0.42;80.71
27643;BME280;15053;48.618;10.024;2023-01-29T07:47:40;95126.53;;;-0.46;80.83
27643;BME280;15053;48.618;10.024;2023-01-29T07:50:07;95121.63;;;-0.47;81.52
27643;BME280;15053;48.618;10.024;2023-01-29T07:52:33;95117.28;;;-0.47;80.60
27643;BME280;15053;48.618;10.024;2023-01-29T07:55:00;95121.78;;;-0.49;80.91
27643;BME280;15053;48.618;10.024;2023-01-29T07:57:26;95128.88;;;-0.51;80.91
27643;BME280;15053;48.618;10.024;2023-01-29T07:59:53;95128.09;;;-0.58;81.05
27643;BME280;15053;48.618;10.024;2023-01-29T08:02:19;95125.56;;;-0.58;81.44
27643;BME280;15053;48.618;10.024;2023-01-29T08:04:46;95129.47;;;-0.49;81.75
27643;BME280;15053;48.618;10.024;2023-01-29T08:07:12;95129.06;;;-0.46;81.56
27643;BME280;15053;48.618;10.024;2023-01-29T08:09:39;95130.06;;;-0.47;80.47
27643;BME280;15053;48.618;10.024;2023-01-29T08:12:05;95125.94;;;-0.48;81.41
27643;BME280;15053;48.618;10.024;2023-01-29T08:14:32;95130.06;;;-0.47;81.00
27643;BME280;15053;48.618;10.024;2023-01-29T08:16:58;95136.56;;;-0.44;81.43
27643;BME280;15053;48.618;10.024;2023-01-29T08:19:25;95133.41;;;-0.46;81.20
27643;BME280;15053;48.618;10.024;2023-01-29T08:21:51;95135.97;;;-0.46;81.31
27643;BME280;15053;48.618;10.024;2023-01-29T08:24:17;95133.78;;;-0.49;80.29
27643;BME280;15053;48.618;10.024;2023-01-29T08:26:44;95139.91;;;-0.50;81.44
27643;BME280;15053;48.618;10.024;2023-01-29T08:29:11;95141.06;;;-0.46;80.56
27643;BME280;15053;48.618;10.024;2023-01-29T08:31:37;95145.81;;;-0.43;81.42
27643;BME280;15053;48.618;10.024;2023-01-29T08:34:04;95147.97;;;-0.47;80.69
27643;BME280;15053;48.618;10.024;2023-01-29T08:36:30;95148.75;;;-0.53;81.22
27643;BME280;15053;48.618;10.024;2023-01-29T08:38:57;95150.75;;;-0.55;81.20
27643;BME280;15053;48.618;10.024;2023-01-29T08:41:23;95144.22;;;-0.51;80.65
27643;BME280;15053;48.618;10.024;2023-01-29T08:43:50;95139.31;;;-0.46;81.12
27643;BME280;15053;48.618;10.024;2023-01-29T08:46:16;95135.97;;;-0.40;80.74
27643;BME280;15053;48.618;10.024;2023-01-29T08:48:43;95138.31;;;-0.32;80.29
27643;BME280;15053;48.618;10.024;2023-01-29T08:51:09;95153.28;;;-0.29;80.92
27643;BME280;15053;48.618;10.024;2023-01-29T08:53:36;95145.81;;;-0.30;79.84
27643;BME280;15053;48.618;10.024;2023-01-29T08:56:02;95148.16;;;-0.29;79.75
27643;BME280;15053;48.618;10.024;2023-01-29T08:58:29;95149.34;;;-0.25;80.39
27643;BME280;15053;48.618;10.024;2023-01-29T09:00:55;95144.63;;;-0.21;80.60
27643;BME280;15053;48.618;10.024;2023-01-29T09:03:21;95148.56;;;-0.19;80.18
27643;BME280;15053;48.618;10.024;2023-01-29T09:05:48;95152.13;;;-0.20;80.17
27643;BME280;15053;48.618;10.024;2023-01-29T09:08:14;95160.38;;;-0.24;79.01
27643;BME280;15053;48.618;10.024;2023-01-29T09:10:41;95163.13;;;-0.26;79.27
27643;BME280;15053;48.618;10.024;2023-01-29T09:13:08;95175.72;;;-0.18;79.12
27643;BME280;15053;48.618;10.024;2023-01-29T09:15:34;95172.78;;;-0.15;79.37
27643;BME280;15053;48.618;10.024;2023-01-29T09:18:04;95168.25;;;-0.13;79.59
27643;BME280;15053;48.618;10.024;2023-01-29T09:20:31;95168.03;;;-0.05;79.76
27643;BME280;15053;48.618;10.024;2023-01-29T09:23:03;95177.09;;;-0.02;79.77
27643;BME280;15053;48.618;10.024;2023-01-29T09:25:29;95180.03;;;-0.05;78.42
27643;BME280;15053;48.618;10.024;2023-01-29T09:27:56;95182.81;;;-0.07;79.30
27643;BME280;15053;48.618;10.024;2023-01-29T09:30:22;95187.72;;;-0.05;79.51
27643;BME280;15053;48.618;10.024;2023-01-29T09:32:48;95195.78;;;-0.02;79.33
27643;BME280;15053;48.618;10.024;2023-01-29T09:35:21;95194.22;;;-0.03;78.89
27643;BME280;15053;48.618;10.024;2023-01-29T09:37:49;95196.59;;;-0.01;78.62
27643;BME280;15053;48.618;10.024;2023-01-29T09:43:06;95185.94;;;-0.05;78.93
27643;BME280;15053;48.618;10.024;2023-01-29T09:45:41;95178.66;;;-0.01;78.73
27643;BME280;15053;48.618;10.024;2023-01-29T09:48:11;95176.13;;;-0.01;77.89
27643;BME280;15053;48.618;10.024;2023-01-29T09:50:40;95183.97;;;0.11;77.57
27643;BME280;15053;48.618;10.024;2023-01-29T09:53:43;95178.25;;;0.15;77.66
27643;BME280;15053;48.618;10.024;2023-01-29T09:56:13;95174.09;;;0.21;77.28
27643;BME280;15053;48.618;10.024;2023-01-29T09:58:42;95170.34;;;0.23;77.66
27643;BME280;15053;48.618;10.024;2023-01-29T10:01:22;95173.69;;;0.30;77.72
27643;BME280;15053;48.618;10.024;2023-01-29T10:04:06;95165.06;;;0.25;77.64
27643;BME280;15053;48.618;10.024;2023-01-29T10:15:17;95155.16;;;0.35;77.31
27643;BME280;15053;48.618;10.024;2023-01-29T10:21:02;95145.72;;;0.29;77.12
27643;BME280;15053;48.618;10.024;2023-01-29T10:23:37;95129.97;;;0.25;75.99
27643;BME280;15053;48.618;10.024;2023-01-29T10:26:10;95128.78;;;0.28;76.83
27643;BME280;15053;48.618;10.024;2023-01-29T10:28:47;95118.53;;;0.34;75.81
27643;BME280;15053;48.618;10.024;2023-01-29T10:31:23;95114.16;;;0.41;76.48
27643;BME280;15053;48.618;10.024;2023-01-29T10:33:54;95121.81;;;0.48;75.18
27643;BME280;15053;48.618;10.024;2023-01-29T10:36:42;95118.06;;;0.50;75.06
27643;BME280;15053;48.618;10.024;2023-01-29T10:39:16;95118.00;;;0.64;75.03
27643;BME280;15053;48.618;10.024;2023-01-29T10:41:49;95120.34;;;0.72;75.07
27643;BME280;15053;48.618;10.024;2023-01-29T10:53:42;95110.94;;;0.59;74.76
27643;BME280;15053;48.618;10.024;2023-01-29T10:56:56;95108.47;;;0.77;75.15
27643;BME280;15053;48.618;10.024;2023-01-29T11:02:19;95108.94;;;1.05;73.46
27643;BME280;15053;48.618;10.024;2023-01-29T11:04:47;95116.72;;;1.24;73.51
27643;BME280;15053;48.618;10.024;2023-01-29T11:07:17;95110.91;;;1.35;72.21
27643;BME280;15053;48.618;10.024;2023-01-29T11:10:01;95103.78;;;1.37;71.55
27643;BME280;15053;48.618;10.024;2023-01-29T11:12:30;95108.97;;;1.30;71.55
27643;BME280;15053;48.618;10.024;2023-01-29T11:15:04;95111.34;;;1.32;72.30
27643;BME280;15053;48.618;10.024;2023-01-29T11:17:32;95094.09;;;1.39;71.41
27643;BME280;15053;48.618;10.024;2023-01-29T11:19:58;95086.28;;;1.52;72.32
27643;BME280;15053;48.618;10.024;2023-01-29T11:22:26;95083.25;;;1.61;71.78
27643;BME280;15053;48.618;10.024;2023-01-29T11:25:08;95084.09;;;1.80;71.45
27643;BME280;15053;48.618;10.024;2023-01-29T11:28:01;95085.72;;;1.93;70.59
27643;BME280;15053;48.618;10.024;2023-01-29T11:30:33;95086.16;;;1.90;70.66
27643;BME280;15053;48.618;10.024;2023-01-29T11:35:30;95085.91;;;1.98;70.81
27643;BME280;15053;48.618;10.024;2023-01-29T11:38:17;95087.16;;;2.07;69.69
27643;BME280;15053;48.618;10.024;2023-01-29T11:40:44;95093.81;;;1.96;69.96
27643;BME280;15053;48.618;10.024;2023-01-29T11:43:17;95102.94;;;1.92;69.54
27643;BME280;15053;48.618;10.024;2023-01-29T11:45:45;95083.34;;;1.98;69.83
27643;BME280;15053;48.618;10.024;2023-01-29T11:48:15;95076.69;;;2.08;69.92
27643;BME280;15053;48.618;10.024;2023-01-29T11:50:43;95073.91;;;2.10;69.68
27643;BME280;15053;48.618;10.024;2023-01-29T11:53:39;95073.06;;;2.16;70.22
27643;BME280;15053;48.618;10.024;2023-01-29T11:56:20;95070.69;;;2.14;69.27
27643;BME280;15053;48.618;10.024;2023-01-29T11:58:48;95076.69;;;2.08;69.62
27643;BME280;15053;48.618;10.024;2023-01-29T12:01:26;95060.78;;;2.00;69.16
27643;BME280;15053;48.618;10.024;2023-01-29T12:03:55;95066.19;;;1.92;69.08
27643;BME280;15053;48.618;10.024;2023-01-29T12:06:25;95053.41;;;1.85;69.00
27643;BME280;15053;48.618;10.024;2023-01-29T12:08:54;95039.88;;;1.78;69.04
27643;BME280;15053;48.618;10.024;2023-01-29T12:14:21;95046.50;;;1.86;69.43
27643;BME280;15053;48.618;10.024;2023-01-29T12:17:16;95050.44;;;1.88;69.22
27643;BME280;15053;48.618;10.024;2023-01-29T12:19:58;95040.94;;;1.89;68.86
27643;BME280;15053;48.618;10.024;2023-01-29T12:25:18;95036.38;;;1.91;68.47
27643;BME280;15053;48.618;10.024;2023-01-29T12:27:58;95015.78;;;1.97;67.84
27643;BME280;15053;48.618;10.024;2023-01-29T12:33:04;94999.50;;;1.85;68.10
27643;BME280;15053;48.618;10.024;2023-01-29T12:35:44;94993.91;;;2.06;68.35
27643;BME280;15053;48.618;10.024;2023-01-29T12:38:21;94993.78;;;2.19;67.95
27643;BME280;15053;48.618;10.024;2023-01-29T12:41:40;94990.34;;;2.55;67.71
27643;BME280;15053;48.618;10.024;2023-01-29T12:44:22;94988.31;;;2.87;66.29
27643;BME280;15053;48.618;10.024;2023-01-29T12:46:52;94972.44;;;2.90;65.93
27643;BME280;15053;48.618;10.024;2023-01-29T12:49:32;94967.88;;;3.04;66.34
27643;BME280;15053;48.618;10.024;2023-01-29T12:52:08;94969.09;;;3.01;65.13
27643;BME280;15053;48.618;10.024;2023-01-29T12:54:48;94966.72;;;2.88;65.57
27643;BME280;15053;48.618;10.024;2023-01-29T12:57:33;94948.81;;;2.81;64.98
27643;BME280;15053;48.618;10.024;2023-01-29T13:00:12;94952.97;;;2.82;65.59
27643;BME280;15053;48.618;10.024;2023-01-29T13:03:00;94944.34;;;2.88;64.71
27643;BME280;15053;48.618;10.024;2023-01-29T13:05:40;94945.34;;;2.76;64.70
27643;BME280;15053;48.618;10.024;2023-01-29T13:08:36;94945.97;;;2.60;65.23
27643;BME280;15053;48.618;10.024;2023-01-29T13:11:17;94943.72;;;2.52;65.48
27643;BME280;15053;48.618;10.024;2023-01-29T13:13:58;94943.13;;;2.38;65.17
27643;BME280;15053;48.618;10.024;2023-01-29T13:16:31;94944.78;;;2.32;65.64
27643;BME280;15053;48.618;10.024;2023-01-29T13:19:05;94939.28;;;2.29;65.85
27643;BME280;15053;48.618;10.024;2023-01-29T13:21:38;94939.78;;;2.37;66.01
27643;BME280;15053;48.618;10.024;2023-01-29T13:24:17;94938.78;;;2.38;66.41
27643;BME280;15053;48.618;10.024;2023-01-29T13:26:47;94941.03;;;2.47;66.82
27643;BME280;15053;48.618;10.024;2023-01-29T13:29:25;94932.84;;;2.38;66.11
27643;BME280;15053;48.618;10.024;2023-01-29T13:32:00;94940.94;;;2.23;66.53
27643;BME280;15053;48.618;10.024;2023-01-29T13:34:30;94937.56;;;2.11;66.63
27643;BME280;15053;48.618;10.024;2023-01-29T13:37:00;94943.47;;;2.12;67.41
27643;BME280;15053;48.618;10.024;2023-01-29T13:39:30;94934.75;;;2.13;67.97
27643;BME280;15053;48.618;10.024;2023-01-29T13:41:59;94938.75;;;2.09;67.85
27643;BME280;15053;48.618;10.024;2023-01-29T13:44:34;94930.16;;;2.03;67.95
27643;BME280;15053;48.618;10.024;2023-01-29T13:47:07;94926.75;;;1.91;68.56
27643;BME280;15053;48.618;10.024;2023-01-29T13:49:42;94927.81;;;1.84;68.44
27643;BME280;15053;48.618;10.024;2023-01-29T13:54:40;94923.22;;;1.56;68.67
27643;BME280;15053;48.618;10.024;2023-01-29T13:57:45;94933.16;;;1.46;69.87
27643;BME280;15053;48.618;10.024;2023-01-29T14:10:39;94953.53;;;1.23;71.65
27643;BME280;15053;48.618;10.024;2023-01-29T14:16:24;94944.81;;;1.05;71.41
27643;BME280;15053;48.618;10.024;2023-01-29T14:18:33;94949.56;;;1.02;72.08
27643;BME280;15053;48.618;10.024;2023-01-29T14:21:20;94946.44;;;1.00;71.83
27643;BME280;15053;48.618;10.024;2023-01-29T14:23:51;94947.44;;;0.99;72.08
27643;BME280;15053;48.618;10.024;2023-01-29T14:26:23;94942.13;;;0.94;72.34
27643;BME280;15053;48.618;10.024;2023-01-29T14:28:52;94938.44;;;0.90;72.89
27643;BME280;15053;48.618;10.024;2023-01-29T14:36:53;94941.78;;;0.90;73.23
27643;BME280;15053;48.618;10.024;2023-01-29T14:39:30;94949.13;;;0.87;73.59
27643;BME280;15053;48.618;10.024;2023-01-29T14:42:00;94953.81;;;0.90;73.73
27643;BME280;15053;48.618;10.024;2023-01-29T14:47:21;94945.50;;;0.94;73.83
27643;BME280;15053;48.618;10.024;2023-01-29T14:55:36;94939.69;;;0.81;73.77
27643;BME280;15053;48.618;10.024;2023-01-29T14:58:05;94943.84;;;0.82;73.37
27643;BME280;15053;48.618;10.024;2023-01-29T15:00:36;94945.59;;;0.81;73.71